Time;durP1;ratioP1;P1;durP2;ratioP2;P2;SDS_P1;SDS_P2;PMS_P1;PMS_P2;Temp;Humidity;BMP_temperature;BMP_pressure;BME280_temperature;BME280_humidity;BME280_pressure;Samples;Min_cycle;Max_cycle;Signal;HPM_P1;HPM_P2
2020/12/08 00:02:45;;;;;;;18.02;11.98;;;;;;;-144.15;0.00;65763.66;10358650;28;20092;-67
2020/12/08 00:07:43;;;;;;;17.42;12.52;;;;;;;-144.15;0.00;65763.66;10358516;28;20044;-67
2020/12/08 00:12:40;;;;;;;22.83;11.93;;;;;;;-144.15;0.00;65763.66;10358568;28;20078;-67
2020/12/08 00:17:39;;;;;;;24.02;14.57;;;;;;;-144.15;0.00;65763.66;10357351;28;20055;-67
2020/12/08 00:22:37;;;;;;;28.75;15.50;;;;;;;-144.15;0.00;65763.66;10358631;28;20516;-67
2020/12/08 00:27:36;;;;;;;18.83;11.55;;;;;;;-144.15;0.00;65763.66;10358077;28;20051;-67
2020/12/08 00:32:37;;;;;;;45.53;22.33;;;;;;;-144.15;0.00;65763.66;10358130;28;20056;-67
2020/12/08 00:37:36;;;;;;;17.80;11.45;;;;;;;-144.15;0.00;65763.66;10357583;28;20508;-67
2020/12/08 00:42:39;;;;;;;19.88;13.40;;;;;;;-144.15;0.00;65763.66;10357589;28;20072;-68
2020/12/08 00:47:38;;;;;;;28.23;13.77;;;;;;;-144.15;0.00;65763.66;10357777;28;20045;-68
2020/12/08 00:52:38;;;;;;;39.80;18.77;;;;;;;-144.15;0.00;65763.66;10357588;28;20517;-67
2020/12/08 00:57:42;;;;;;;21.73;13.82;;;;;;;-144.15;0.00;65763.66;10356142;28;20048;-67
2020/12/08 01:02:43;;;;;;;17.00;11.30;;;;;;;-144.15;0.00;65763.66;10355234;28;20051;-67
2020/12/08 01:07:42;;;;;;;23.45;14.77;;;;;;;-144.15;0.00;65763.66;10355751;28;20048;-67
2020/12/08 01:12:47;;;;;;;26.13;15.30;;;;;;;-144.15;0.00;65763.66;10355218;28;20422;-66
2020/12/08 01:17:46;;;;;;;20.45;13.73;;;;;;;-144.15;0.00;65763.66;10355239;28;20048;-67
2020/12/08 01:22:45;;;;;;;17.63;12.27;;;;;;;-144.15;0.00;65763.66;10355019;28;20086;-66
2020/12/08 01:27:44;;;;;;;15.98;11.68;;;;;;;-144.15;0.00;65763.66;10359608;28;20052;-65
2020/12/08 01:32:42;;;;;;;18.55;12.68;;;;;;;-144.15;0.00;65763.66;10363374;28;20527;-65
2020/12/08 01:37:40;;;;;;;18.30;12.45;;;;;;;-144.15;0.00;65763.66;10363823;28;20378;-66
2020/12/08 01:42:39;;;;;;;22.30;13.75;;;;;;;-144.15;0.00;65763.66;10361740;28;20056;-66
2020/12/08 01:47:38;;;;;;;14.80;10.98;;;;;;;-144.15;0.00;65763.66;10363545;28;20130;-67
2020/12/08 01:52:37;;;;;;;19.52;12.00;;;;;;;-144.15;0.00;65763.66;10362034;28;20051;-67
2020/12/08 01:57:38;;;;;;;15.50;10.13;;;;;;;-144.15;0.00;65763.66;10361605;28;20044;-67
2020/12/08 02:02:40;;;;;;;14.48;9.93;;;;;;;-144.15;0.00;65763.66;10361472;28;20052;-67
2020/12/08 02:07:44;;;;;;;15.27;10.98;;;;;;;-144.15;0.00;65763.66;10362915;28;20036;-67
2020/12/08 02:12:45;;;;;;;15.60;10.02;;;;;;;-144.15;0.00;65763.66;10361052;28;20517;-68
2020/12/08 02:17:46;;;;;;;18.83;10.98;;;;;;;-144.15;0.00;65763.66;10360859;28;20409;-66
2020/12/08 02:22:46;;;;;;;14.07;10.07;;;;;;;-144.15;0.00;65763.66;10360458;28;20428;-67
2020/12/08 02:27:44;;;;;;;28.17;13.75;;;;;;;-144.15;0.00;65763.66;10360551;28;20048;-67
2020/12/08 02:32:42;;;;;;;21.88;11.68;;;;;;;-144.15;0.00;65763.66;10362319;28;20047;-68
2020/12/08 02:37:40;;;;;;;25.60;19.13;;;;;;;-144.15;0.00;65763.66;10359482;28;20048;-67
2020/12/08 02:42:39;;;;;;;12.80;9.45;;;;;;;-144.15;0.00;65763.66;10359912;28;20477;-67
2020/12/08 02:47:38;;;;;;;14.55;8.50;;;;;;;-144.15;0.00;65763.66;10361383;28;20086;-68
2020/12/08 02:52:35;;;;;;;11.43;7.95;;;;;;;-144.15;0.00;65763.66;10361138;28;20048;-68
2020/12/08 02:57:33;;;;;;;15.25;9.70;;;;;;;-144.15;0.00;65763.66;10359599;28;20044;-68
2020/12/08 03:02:33;;;;;;;12.60;9.05;;;;;;;-144.15;0.00;65763.66;10359429;28;20638;-68
2020/12/08 03:07:31;;;;;;;24.83;15.63;;;;;;;-144.15;0.00;65763.66;10358753;28;20048;-68
2020/12/08 03:12:32;;;;;;;15.93;11.13;;;;;;;-144.15;0.00;65763.66;10358663;28;20520;-68
2020/12/08 03:17:30;;;;;;;13.65;9.57;;;;;;;-144.15;0.00;65763.66;10358621;28;20044;-68
2020/12/08 03:22:29;;;;;;;22.42;11.23;;;;;;;-144.15;0.00;65763.66;10358640;28;20040;-67
2020/12/08 03:27:29;;;;;;;13.15;9.63;;;;;;;-144.15;0.00;65763.66;10358218;28;20048;-68
2020/12/08 03:32:30;;;;;;;23.60;14.70;;;;;;;-144.15;0.00;65763.66;10358176;28;20052;-68
2020/12/08 03:37:32;;;;;;;19.63;14.30;;;;;;;-144.15;0.00;65763.66;10357468;28;20075;-68
2020/12/08 03:42:36;;;;;;;15.63;10.05;;;;;;;-144.15;0.00;65763.66;10356916;28;20040;-68
2020/12/08 03:47:37;;;;;;;22.58;13.13;;;;;;;-144.15;0.00;65763.66;10357304;28;20056;-68
2020/12/08 03:52:37;;;;;;;22.20;13.45;;;;;;;-144.15;0.00;65763.66;10356449;28;20051;-68
2020/12/08 03:57:38;;;;;;;18.95;12.40;;;;;;;-144.15;0.00;65763.66;10356696;28;20074;-68
2020/12/08 04:02:38;;;;;;;20.48;11.25;;;;;;;-144.15;0.00;65763.66;10357517;28;20052;-67
2020/12/08 04:07:40;;;;;;;18.38;11.35;;;;;;;-144.15;0.00;65763.66;10356499;28;20421;-68
2020/12/08 04:12:38;;;;;;;27.17;15.32;;;;;;;-144.15;0.00;65763.66;10355638;28;20044;-67
2020/12/08 04:17:38;;;;;;;25.30;13.32;;;;;;;-144.15;0.00;65763.66;10356274;28;20485;-67
2020/12/08 04:22:37;;;;;;;25.33;13.32;;;;;;;-144.15;0.00;65763.66;10339748;28;20074;-67
2020/12/08 04:27:37;;;;;;;25.75;15.75;;;;;;;-144.15;0.00;65763.66;10331939;28;20048;-67
2020/12/08 04:32:39;;;;;;;21.35;13.10;;;;;;;-144.15;0.00;65763.66;10349486;28;20061;-68
2020/12/08 04:37:37;;;;;;;14.52;10.63;;;;;;;-144.15;0.00;65763.66;10304743;28;20079;-68
2020/12/08 04:42:44;;;;;;;19.48;13.13;;;;;;;-144.15;0.00;65763.66;10343028;28;20070;-68
2020/12/08 04:47:45;;;;;;;13.07;9.88;;;;;;;-144.15;0.00;65763.66;10315971;28;20083;-68
2020/12/08 04:52:44;;;;;;;13.27;9.02;;;;;;;-144.15;0.00;65763.66;10325015;28;20048;-68
2020/12/08 04:57:42;;;;;;;10.10;7.45;;;;;;;-144.15;0.00;65763.66;10328841;28;20509;-65
2020/12/08 05:02:47;;;;;;;9.02;7.65;;;;;;;-144.15;0.00;65763.66;10328640;28;20470;-66
2020/12/08 05:07:46;;;;;;;11.00;7.32;;;;;;;-144.15;0.00;65763.66;10343505;28;20086;-68
2020/12/08 05:12:50;;;;;;;17.65;9.45;;;;;;;-144.15;0.00;65763.66;10324101;28;20079;-68
2020/12/08 05:17:48;;;;;;;12.20;7.95;;;;;;;-144.15;0.00;65763.66;10343626;28;20476;-68
2020/12/08 05:22:53;;;;;;;15.65;10.90;;;;;;;-144.15;0.00;65763.66;10327025;28;20501;-66
2020/12/08 05:27:52;;;;;;;18.58;11.82;;;;;;;-144.15;0.00;65763.66;10322436;28;20090;-66
2020/12/08 05:32:52;;;;;;;10.00;8.02;;;;;;;-144.15;0.00;65763.66;10323017;28;20528;-68
2020/12/08 05:37:52;;;;;;;71.50;46.58;;;;;;;-144.15;0.00;65763.66;10321566;28;20055;-67
2020/12/08 05:42:51;;;;;;;15.82;9.57;;;;;;;1.72;0.00;65763.66;10327649;28;20075;-68
2020/12/08 05:47:51;;;;;;;31.35;21.38;;;;;;;-144.15;0.00;65763.66;10329915;28;20086;-69
2020/12/08 05:52:50;;;;;;;17.85;12.45;;;;;;;-144.15;0.00;65763.66;10320450;28;20072;-69
2020/12/08 05:57:50;;;;;;;23.20;15.45;;;;;;;-144.15;0.00;65763.66;10321455;28;20501;-68
2020/12/08 06:02:48;;;;;;;28.60;17.33;;;;;;;-144.15;0.00;65763.66;10321075;28;20495;-68
2020/12/08 06:07:46;;;;;;;55.38;30.17;;;;;;;-144.15;0.00;65763.66;10319559;28;20541;-67
2020/12/08 06:12:44;;;;;;;30.88;21.38;;;;;;;-144.15;0.00;65763.66;10319935;28;20433;-68
2020/12/08 06:17:46;;;;;;;33.25;21.95;;;;;;;-144.15;0.00;65763.66;10319427;28;20064;-68
2020/12/08 06:22:55;;;;;;;30.83;19.58;;;;;;;-144.15;0.00;65763.66;10320832;28;20071;-69
2020/12/08 06:27:57;;;;;;;47.03;33.78;;;;;;;-144.15;0.00;65763.66;10319737;28;20508;-69
2020/12/08 06:32:55;;;;;;;47.58;30.90;;;;;;;-144.15;0.00;65763.66;10320118;28;20071;-68
2020/12/08 06:37:54;;;;;;;50.55;34.90;;;;;;;-144.15;0.00;65763.66;10325552;28;20051;-69
2020/12/08 06:42:54;;;;;;;43.00;32.63;;;;;;;-144.15;0.00;65763.66;10318109;28;20048;-69
2020/12/08 06:47:52;;;;;;;77.28;48.45;;;;;;;-144.15;0.00;65763.66;10333309;28;20078;-69
2020/12/08 06:52:56;;;;;;;94.45;59.97;;;;;;;-144.15;0.00;65763.66;10329008;28;20079;-70
2020/12/08 06:58:06;;;;;;;102.80;65.83;;;;;;;-144.15;0.00;65763.66;10334286;28;20044;-70
2020/12/08 07:03:05;;;;;;;77.57;48.95;;;;;;;-144.15;0.00;65763.66;10318258;28;20303;-67
2020/12/08 07:08:05;;;;;;;47.58;33.40;;;;;;;-144.15;0.00;65763.66;10322579;28;20087;-70
2020/12/08 07:13:10;;;;;;;66.40;42.45;;;;;;;-144.15;0.00;65763.66;10317165;28;20075;-67
2020/12/08 07:18:09;;;;;;;50.00;34.20;;;;;;;-144.15;0.00;65763.66;10318181;28;20048;-69
2020/12/08 07:23:10;;;;;;;74.15;49.20;;;;;;;-144.15;0.00;65763.66;10317761;28;20500;-68
2020/12/08 07:28:08;;;;;;;70.70;45.10;;;;;;;-144.15;0.00;65763.66;10317085;28;20080;-68
2020/12/08 07:33:11;;;;;;;59.80;41.42;;;;;;;-144.15;0.00;65763.66;10317634;28;20036;-68
2020/12/08 07:38:10;;;;;;;85.38;41.58;;;;;;;-144.15;0.00;65763.66;10327020;28;20056;-67
2020/12/08 07:43:08;;;;;;;106.18;55.92;;;;;;;-144.15;0.00;65763.66;10317170;28;20068;-69
2020/12/08 07:48:06;;;;;;;70.78;38.47;;;;;;;-144.15;0.00;65763.66;10337259;28;20071;-69
2020/12/08 07:53:06;;;;;;;55.92;33.42;;;;;;;-144.15;0.00;65763.66;10323662;28;20107;-69
2020/12/08 07:58:04;;;;;;;43.92;28.25;;;;;;;-144.15;0.00;65763.66;10316721;28;20052;-69
2020/12/08 08:03:02;;;;;;;26.60;18.92;;;;;;;-144.15;0.00;65763.66;10316685;28;20493;-69
2020/12/08 08:08:00;;;;;;;32.05;21.00;;;;;;;-144.15;0.00;65763.66;10316543;28;20072;-68
2020/12/08 08:12:58;;;;;;;32.83;23.98;;;;;;;-144.15;0.00;65763.66;10316728;28;20049;-69
2020/12/08 08:17:57;;;;;;;20.95;15.50;;;;;;;-144.15;0.00;65763.66;10316971;28;20501;-68
2020/12/08 08:22:55;;;;;;;26.90;17.83;;;;;;;-144.15;0.00;65763.66;10316514;28;20454;-70
2020/12/08 08:27:53;;;;;;;40.25;24.13;;;;;;;-144.15;0.00;65763.66;10316311;28;20079;-70
2020/12/08 08:32:50;;;;;;;39.92;27.70;;;;;;;-144.15;0.00;65763.66;10317297;28;20041;-70
2020/12/08 08:37:49;;;;;;;39.25;25.50;;;;;;;-144.15;0.00;65763.66;10321382;28;20047;-70
2020/12/08 08:42:47;;;;;;;43.05;27.40;;;;;;;-144.15;0.00;65763.66;10322563;28;20512;-69
2020/12/08 08:47:44;;;;;;;46.35;27.20;;;;;;;-144.15;0.00;65763.66;10324514;28;20080;-69
2020/12/08 08:52:42;;;;;;;28.67;19.67;;;;;;;-144.15;0.00;65763.66;10323936;28;20037;-69
2020/12/08 08:57:41;;;;;;;21.10;17.98;;;;;;;-144.15;0.00;65763.66;10324242;28;20068;-69
2020/12/08 09:02:39;;;;;;;25.83;19.63;;;;;;;-144.15;0.00;65763.66;10323444;28;20084;-68
2020/12/08 09:07:37;;;;;;;30.40;20.95;;;;;;;-144.15;0.00;65763.66;10323082;28;20474;-68
2020/12/08 09:12:35;;;;;;;21.33;15.50;;;;;;;-144.15;0.00;65763.66;10327709;28;20504;-68
2020/12/08 09:17:34;;;;;;;19.00;14.77;;;;;;;-144.15;0.00;65763.66;10328327;28;20075;-68
2020/12/08 09:22:32;;;;;;;16.25;10.95;;;;;;;-144.15;0.00;65763.66;10327421;28;20076;-68
2020/12/08 09:27:29;;;;;;;15.95;12.23;;;;;;;-144.15;0.00;65763.66;10323647;28;20065;-67
2020/12/08 09:32:27;;;;;;;13.65;12.15;;;;;;;-144.15;0.00;65763.66;10332610;28;20052;-68
2020/12/08 09:37:26;;;;;;;13.60;10.48;;;;;;;-144.15;0.00;65763.66;10331034;28;20053;-68
2020/12/08 09:42:24;;;;;;;20.70;15.98;;;;;;;-144.15;0.00;65763.66;10326366;28;20064;-68
2020/12/08 09:47:21;;;;;;;32.38;20.08;;;;;;;-144.15;0.00;65763.66;10321379;28;20891;-68
2020/12/08 09:52:19;;;;;;;44.65;29.70;;;;;;;-144.15;0.00;65763.66;10340150;28;20449;-68
2020/12/08 09:57:18;;;;;;;35.70;26.08;;;;;;;-144.15;0.00;65763.66;10329860;28;20080;-66
2020/12/08 10:02:16;;;;;;;23.67;18.85;;;;;;;-144.15;0.00;65763.66;10321505;28;20080;-67
2020/12/08 10:07:17;;;;;;;24.83;16.98;;;;;;;-144.15;0.00;65763.66;10328171;28;20079;-68
2020/12/08 10:12:16;;;;;;;20.02;16.70;;;;;;;-144.15;0.00;65763.66;10336527;28;20044;-67
2020/12/08 10:17:15;;;;;;;38.28;29.40;;;;;;;-144.15;0.00;65763.66;10339219;28;20040;-67
2020/12/08 10:22:14;;;;;;;36.28;27.55;;;;;;;-144.15;0.00;65763.66;10320849;28;20068;-68
2020/12/08 10:27:11;;;;;;;48.00;26.63;;;;;;;-144.15;0.00;65763.66;10320459;28;20076;-67
2020/12/08 10:32:09;;;;;;;37.35;27.17;;;;;;;-144.15;0.00;65763.66;10320687;28;20485;-67
2020/12/08 10:37:08;;;;;;;88.88;66.45;;;;;;;-144.15;0.00;65763.66;10324652;28;20076;-67
2020/12/08 10:42:06;;;;;;;80.75;59.25;;;;;;;-144.15;0.00;65763.66;10325314;28;20044;-66
2020/12/08 10:47:03;;;;;;;60.67;43.95;;;;;;;-144.15;0.00;65763.66;10319606;28;20084;-68
2020/12/08 10:52:01;;;;;;;69.63;47.25;;;;;;;-144.15;0.00;65763.66;10319039;28;20071;-67
2020/12/08 10:57:00;;;;;;;58.17;25.90;;;;;;;-144.15;0.00;65763.66;10318915;28;20522;-67
2020/12/08 11:01:57;;;;;;;29.27;18.23;;;;;;;-144.15;0.00;65763.66;10317808;28;20564;-68
2020/12/08 11:06:56;;;;;;;27.33;20.55;;;;;;;-144.15;0.00;65763.66;10318835;28;20083;-68
2020/12/08 11:11:53;;;;;;;57.92;38.65;;;;;;;-144.15;0.00;65763.66;10318112;28;20036;-68
2020/12/08 11:16:53;;;;;;;43.30;28.52;;;;;;;-144.15;0.00;65763.66;10316480;28;20059;-67
2020/12/08 11:22:05;;;;;;;24.35;17.50;;;;;;;-144.15;0.00;65763.66;10317932;28;20079;-67
2020/12/08 11:27:13;;;;;;;66.03;31.35;;;;;;;-144.15;0.00;65763.66;10317569;28;20075;-68
2020/12/08 11:32:16;;;;;;;103.50;33.00;;;;;;;-144.15;0.00;65763.66;10318881;28;20103;-68
2020/12/08 11:37:14;;;;;;;44.35;28.45;;;;;;;-144.15;0.00;65763.66;10316699;28;20051;-68
2020/12/08 11:42:14;;;;;;;40.35;25.80;;;;;;;-144.15;0.00;65763.66;10317347;28;20078;-67
2020/12/08 11:47:13;;;;;;;27.38;20.00;;;;;;;-144.15;0.00;65763.66;10317242;28;20087;-68
2020/12/08 11:52:12;;;;;;;46.72;30.00;;;;;;;-144.15;0.00;65763.66;10315938;28;20075;-67
2020/12/08 11:57:10;;;;;;;52.50;37.95;;;;;;;-144.15;0.00;65763.66;10316671;28;20041;-67
2020/12/08 12:02:08;;;;;;;30.02;21.23;;;;;;;-144.15;0.00;65763.66;10316430;28;20067;-68
2020/12/08 12:07:06;;;;;;;50.78;29.58;;;;;;;-144.15;0.00;65763.66;10316196;28;20080;-66
2020/12/08 12:12:04;;;;;;;55.08;39.42;;;;;;;-144.15;0.00;65763.66;10315688;28;20060;-67
2020/12/08 12:17:02;;;;;;;56.78;37.88;;;;;;;-144.15;0.00;65763.66;10316276;28;20409;-66
2020/12/08 12:21:59;;;;;;;49.58;31.60;;;;;;;-144.15;0.00;65763.66;10316861;28;20044;-67
2020/12/08 12:26:58;;;;;;;25.08;15.80;;;;;;;-144.15;0.00;65763.66;10315203;28;20092;-67
2020/12/08 12:31:56;;;;;;;34.83;19.33;;;;;;;-144.15;0.00;65763.66;10317327;28;20504;-68
2020/12/08 12:36:54;;;;;;;41.60;31.45;;;;;;;-144.15;0.00;65763.66;10315620;28;20083;-67
2020/12/08 12:41:52;;;;;;;30.42;21.50;;;;;;;-144.15;0.00;65763.66;10315032;28;20048;-67
2020/12/08 12:46:52;;;;;;;44.67;32.97;;;;;;;-144.15;0.00;65763.66;10315330;28;20076;-67
2020/12/08 12:51:50;;;;;;;61.03;43.33;;;;;;;-144.15;0.00;65763.66;10315689;28;20044;-66
2020/12/08 12:56:51;;;;;;;79.82;61.55;;;;;;;-144.15;0.00;65763.66;10314688;28;20080;-66
2020/12/08 13:01:48;;;;;;;47.00;31.20;;;;;;;-144.15;0.00;65763.66;10315715;28;20059;-66
2020/12/08 13:06:48;;;;;;;80.90;49.22;;;;;;;-144.15;0.00;65763.66;10315412;28;20076;-68
2020/12/08 13:11:46;;;;;;;312.27;159.43;;;;;;;-144.15;0.00;65763.66;10315045;28;20103;-68
2020/12/08 13:16:45;;;;;;;125.43;67.55;;;;;;;-144.15;0.00;65763.66;10319938;28;20091;-68
2020/12/08 13:21:42;;;;;;;118.85;71.53;;;;;;;-144.15;0.00;65763.66;10343697;28;20036;-67
2020/12/08 13:26:42;;;;;;;187.40;108.72;;;;;;;-144.15;0.00;65763.66;10322487;28;20087;-68
2020/12/08 13:31:40;;;;;;;80.95;51.70;;;;;;;-144.15;0.00;65763.66;10322364;28;20040;-68
2020/12/08 13:36:38;;;;;;;86.80;48.78;;;;;;;-144.15;0.00;65763.66;10320754;28;20107;-68
2020/12/08 13:41:37;;;;;;;130.52;66.88;;;;;;;-144.15;0.00;65763.66;10322006;28;20067;-68
2020/12/08 13:46:35;;;;;;;173.25;74.03;;;;;;;-144.15;0.00;65763.66;10320633;28;20111;-68
2020/12/08 13:51:33;;;;;;;210.82;96.75;;;;;;;-144.15;0.00;65763.66;10321609;28;20049;-68
2020/12/08 13:56:30;;;;;;;78.10;37.25;;;;;;;-144.15;0.00;65763.66;10320754;28;20076;-68
2020/12/08 14:01:28;;;;;;;100.10;52.05;;;;;;;-144.15;0.00;65763.66;10320746;28;20579;-68
2020/12/08 14:06:27;;;;;;;95.03;51.85;;;;;;;-144.15;0.00;65763.66;10321359;28;20091;-68
2020/12/08 14:11:25;;;;;;;182.18;88.13;;;;;;;-144.15;0.00;65763.66;10320616;28;20072;-65
2020/12/08 14:16:22;;;;;;;55.78;33.95;;;;;;;-144.15;0.00;65763.66;10319647;28;20568;-67
2020/12/08 14:21:20;;;;;;;27.35;20.58;;;;;;;-144.15;0.00;65763.66;10320769;28;20075;-67
2020/12/08 14:26:22;;;;;;;173.52;109.43;;;;;;;-144.15;0.00;65763.66;10320611;28;20088;-67
2020/12/08 14:31:19;;;;;;;38.15;23.17;;;;;;;-144.15;0.00;65763.66;10321049;28;20409;-67
2020/12/08 14:36:17;;;;;;;38.15;25.38;;;;;;;-144.15;0.00;65763.66;10318758;28;20466;-64
2020/12/08 14:41:15;;;;;;;68.13;46.60;;;;;;;-144.15;0.00;65763.66;10320051;28;20076;-67
2020/12/08 14:46:14;;;;;;;110.32;60.88;;;;;;;-144.15;0.00;65763.66;10319234;28;20087;-67
2020/12/08 14:51:15;;;;;;;109.00;66.22;;;;;;;-144.15;0.00;65763.66;10318765;28;20076;-67
2020/12/08 14:56:17;;;;;;;140.30;72.13;;;;;;;-144.15;0.00;65763.66;10318691;28;20040;-67
2020/12/08 15:01:16;;;;;;;191.23;91.60;;;;;;;-144.15;0.00;65763.66;10319426;28;20055;-67
2020/12/08 15:06:14;;;;;;;134.07;69.72;;;;;;;-144.15;0.00;65763.66;10318546;28;20664;-67
2020/12/08 15:11:12;;;;;;;92.22;49.03;;;;;;;-144.15;0.00;65763.66;10320478;28;20087;-67
2020/12/08 15:16:10;;;;;;;63.47;38.42;;;;;;;-144.15;0.00;65763.66;10356145;28;20055;-67
2020/12/08 15:21:10;;;;;;;127.63;70.15;;;;;;;-144.15;0.00;65763.66;10348518;28;20057;-67
2020/12/08 15:26:08;;;;;;;183.57;92.93;;;;;;;-144.15;0.00;65763.66;10317522;28;20533;-69
2020/12/08 15:31:06;;;;;;;206.45;84.22;;;;;;;-144.15;0.00;65763.66;10336396;28;20064;-68
2020/12/08 15:36:04;;;;;;;150.70;74.72;;;;;;;-144.15;0.00;65763.66;10314980;28;20064;-68
2020/12/08 15:41:03;;;;;;;120.68;70.85;;;;;;;-144.15;0.00;65763.66;10315291;28;20084;-68
2020/12/08 15:46:02;;;;;;;116.53;58.75;;;;;;;-144.15;0.00;65763.66;10315960;28;20079;-68
2020/12/08 15:51:00;;;;;;;145.25;80.43;;;;;;;-144.15;0.00;65763.66;10316921;28;20072;-68
2020/12/08 15:55:58;;;;;;;89.13;42.28;;;;;;;-144.15;0.00;65763.66;10317329;28;20086;-68
2020/12/08 16:00:57;;;;;;;82.32;37.97;;;;;;;-144.15;0.00;65763.66;10317333;28;20084;-68
2020/12/08 16:05:54;;;;;;;89.60;48.35;;;;;;;-144.15;0.00;65763.66;10325368;28;20063;-69
2020/12/08 16:10:52;;;;;;;88.65;50.80;;;;;;;-144.15;0.00;65763.66;10316555;28;20037;-69
2020/12/08 16:15:50;;;;;;;88.38;41.55;;;;;;;-144.15;0.00;65763.66;10316348;28;20041;-69
2020/12/08 16:20:49;;;;;;;164.55;76.03;;;;;;;3.02;0.00;65763.66;10316511;28;20076;-69
2020/12/08 16:25:48;;;;;;;165.35;87.85;;;;;;;-144.15;0.00;65763.66;10315790;28;20079;-66
2020/12/08 16:30:46;;;;;;;51.03;33.88;;;;;;;-144.15;0.00;65763.66;10322236;28;20044;-65
2020/12/08 16:35:45;;;;;;;38.00;22.33;;;;;;;-144.15;0.00;65763.66;10354308;28;20040;-66
2020/12/08 16:40:46;;;;;;;127.00;52.30;;;;;;;-144.15;0.00;65763.66;10355690;28;20108;-66
2020/12/08 16:45:45;;;;;;;59.53;30.85;;;;;;;-144.15;0.00;65763.66;10354719;28;20055;-66
2020/12/08 16:50:45;;;;;;;174.43;82.50;;;;;;;-144.15;0.00;65763.66;10356048;28;20036;-66
2020/12/08 16:55:46;;;;;;;211.50;88.32;;;;;;;-144.15;0.00;65763.66;10352538;28;20516;-67
2020/12/08 17:00:44;;;;;;;192.55;84.45;;;;;;;-144.15;0.00;65763.66;10343978;28;20064;-67
2020/12/08 17:05:42;;;;;;;84.22;48.65;;;;;;;-144.15;0.00;65763.66;10342187;28;20064;-66
2020/12/08 17:10:40;;;;;;;143.85;69.22;;;;;;;-144.15;0.00;65763.66;10334758;28;20080;-66
2020/12/08 17:15:39;;;;;;;77.45;36.08;;;;;;;3.02;0.00;65763.66;10327489;28;20060;-67
2020/12/08 17:20:36;;;;;;;60.67;31.40;;;;;;;-144.15;0.00;65763.66;10338340;28;20143;-67
2020/12/08 17:25:34;;;;;;;32.97;21.67;;;;;;;-144.15;0.00;65763.66;10340795;28;20088;-67
2020/12/08 17:30:32;;;;;;;49.35;28.92;;;;;;;-144.15;0.00;65763.66;10326412;28;21208;-67
2020/12/08 17:35:31;;;;;;;29.15;20.05;;;;;;;-144.15;0.00;65763.66;10332539;28;20075;-68
2020/12/08 17:40:30;;;;;;;74.50;42.70;;;;;;;-144.15;0.00;65763.66;10335178;28;20512;-68
2020/12/08 17:45:28;;;;;;;79.30;32.00;;;;;;;-144.15;0.00;65763.66;10333995;28;20048;-69
2020/12/08 17:50:26;;;;;;;108.43;58.67;;;;;;;-144.15;0.00;65763.66;10339166;28;20458;-67
2020/12/08 17:55:25;;;;;;;89.85;46.03;;;;;;;-144.15;0.00;65763.66;10319958;28;20098;-67
2020/12/08 18:00:24;;;;;;;40.42;25.98;;;;;;;-144.15;0.00;65763.66;10339865;28;20088;-67
2020/12/08 18:05:21;;;;;;;48.55;30.95;;;;;;;-144.15;0.00;65763.66;10339912;28;20512;-68
2020/12/08 18:10:19;;;;;;;51.53;29.23;;;;;;;-144.15;0.00;65763.66;10319651;28;20079;-68
2020/12/08 18:15:18;;;;;;;76.43;40.80;;;;;;;-144.15;0.00;65763.66;10321798;28;20076;-67
2020/12/08 18:20:16;;;;;;;30.83;19.75;;;;;;;-144.15;0.00;65763.66;10320412;28;20070;-67
2020/12/08 18:25:15;;;;;;;33.83;25.67;;;;;;;-144.15;0.00;65763.66;10320560;28;20071;-67
2020/12/08 18:30:13;;;;;;;55.72;34.65;;;;;;;-144.15;0.00;65763.66;10320418;28;20541;-68
2020/12/08 18:35:14;;;;;;;22.80;14.80;;;;;;;-144.15;0.00;65763.66;10320071;28;20052;-67
2020/12/08 18:40:13;;;;;;;27.85;17.13;;;;;;;-144.15;0.00;65763.66;10319874;28;20492;-68
2020/12/08 18:45:11;;;;;;;92.88;44.25;;;;;;;-144.15;0.00;65763.66;10319624;28;20044;-67
2020/12/08 18:50:14;;;;;;;23.42;15.35;;;;;;;-144.15;0.00;65763.66;10329648;28;20607;-68
2020/12/08 18:55:14;;;;;;;29.15;17.30;;;;;;;-144.15;0.00;65763.66;10360828;28;20039;-68
2020/12/08 19:00:15;;;;;;;30.75;20.10;;;;;;;-144.15;0.00;65763.66;10360329;28;20386;-68
2020/12/08 19:05:13;;;;;;;54.30;34.38;;;;;;;-144.15;0.00;65763.66;10359842;28;20051;-68
2020/12/08 19:10:11;;;;;;;30.30;19.65;;;;;;;-144.15;0.00;65763.66;10359044;28;20161;-69
2020/12/08 19:15:09;;;;;;;28.33;19.75;;;;;;;-144.15;0.00;65763.66;10359807;28;20044;-69
2020/12/08 19:20:08;;;;;;;15.18;10.25;;;;;;;-144.15;0.00;65763.66;10359414;28;20564;-69
2020/12/08 19:25:06;;;;;;;23.55;15.75;;;;;;;-144.15;0.00;65763.66;10359533;28;20051;-69
2020/12/08 19:30:05;;;;;;;22.75;16.55;;;;;;;-144.15;0.00;65763.66;10359429;28;20078;-68
2020/12/08 19:35:06;;;;;;;28.38;16.48;;;;;;;-144.15;0.00;65763.66;10359412;28;20077;-67
2020/12/08 19:40:05;;;;;;;21.88;14.93;;;;;;;-144.15;0.00;65763.66;10358635;28;20489;-68
2020/12/08 19:45:04;;;;;;;21.30;12.27;;;;;;;-144.15;0.00;65763.66;10358496;28;20386;-68
2020/12/08 19:50:02;;;;;;;18.38;10.82;;;;;;;-144.15;0.00;65763.66;10331203;28;20076;-69
2020/12/08 19:55:00;;;;;;;26.98;16.27;;;;;;;-144.15;0.00;65763.66;10321070;28;20063;-68
2020/12/08 19:59:58;;;;;;;37.33;21.20;;;;;;;-144.15;0.00;65763.66;10342465;28;20076;-68
2020/12/08 20:05:14;;;;;;;14.27;9.43;;;;;;;-144.15;0.00;65763.66;10339194;28;20071;-69
2020/12/08 20:10:14;;;;;;;16.75;10.68;;;;;;;-144.15;0.00;65763.66;10343538;28;20068;-69
2020/12/08 20:15:12;;;;;;;21.15;14.20;;;;;;;-144.15;0.00;65763.66;10316996;28;20394;-68
2020/12/08 20:20:12;;;;;;;22.98;15.02;;;;;;;-144.15;0.00;65763.66;10316792;28;20049;-69
2020/12/08 20:25:12;;;;;;;35.35;26.25;;;;;;;-144.15;0.00;65763.66;10316799;28;20085;-69
2020/12/08 20:30:13;;;;;;;23.08;19.85;;;;;;;-144.15;0.00;65763.66;10316437;28;20353;-69
2020/12/08 20:35:11;;;;;;;20.85;15.13;;;;;;;-144.15;0.00;65763.66;10316233;28;20417;-68
2020/12/08 20:40:09;;;;;;;15.93;10.95;;;;;;;-144.15;0.00;65763.66;10316172;28;20075;-67
2020/12/08 20:45:08;;;;;;;14.63;10.00;;;;;;;-144.15;0.00;65763.66;10315912;28;20049;-68
2020/12/08 20:50:07;;;;;;;15.05;9.77;;;;;;;-144.15;0.00;65763.66;10326801;28;20067;-68
2020/12/08 20:55:05;;;;;;;12.77;9.68;;;;;;;-144.15;0.00;65763.66;10328919;28;20041;-68
2020/12/08 21:00:06;;;;;;;19.77;13.52;;;;;;;-144.15;0.00;65763.66;10337471;28;20056;-69
2020/12/08 21:05:04;;;;;;;19.88;13.75;;;;;;;-144.15;0.00;65763.66;10336942;28;20064;-68
2020/12/08 21:10:03;;;;;;;17.17;12.30;;;;;;;-144.15;0.00;65763.66;10320987;28;20474;-68
2020/12/08 21:15:01;;;;;;;17.40;12.38;;;;;;;-144.15;0.00;65763.66;10355820;28;20048;-68
2020/12/08 21:19:59;;;;;;;16.33;11.73;;;;;;;-144.15;0.00;65763.66;10356428;28;20072;-67
2020/12/08 21:24:58;;;;;;;14.35;9.77;;;;;;;-144.15;0.00;65763.66;10336245;28;20051;-67
2020/12/08 21:29:55;;;;;;;14.43;8.95;;;;;;;-144.15;0.00;65763.66;10315140;28;20076;-68
2020/12/08 21:34:53;;;;;;;13.02;8.27;;;;;;;-144.15;0.00;65763.66;10314964;28;20063;-68
2020/12/08 21:39:51;;;;;;;15.05;9.55;;;;;;;-144.15;0.00;65763.66;10314054;28;20044;-68
2020/12/08 21:44:49;;;;;;;13.23;8.48;;;;;;;-144.15;0.00;65763.66;10333164;28;20157;-67
2020/12/08 21:49:48;;;;;;;12.20;9.20;;;;;;;-144.15;0.00;65763.66;10340570;28;20090;-68
2020/12/08 21:54:46;;;;;;;15.40;7.70;;;;;;;-144.15;0.00;65763.66;10362990;28;20048;-68
2020/12/08 21:59:44;;;;;;;16.35;9.48;;;;;;;-144.15;0.00;65763.66;10343558;28;20507;-69
2020/12/08 22:04:55;;;;;;;12.32;7.57;;;;;;;-144.15;0.00;65763.66;10361812;28;20444;-69
2020/12/08 22:09:53;;;;;;;10.02;6.25;;;;;;;-144.15;0.00;65763.66;10362986;28;20072;-69
2020/12/08 22:14:51;;;;;;;13.55;8.27;;;;;;;-144.15;0.00;65763.66;10362157;28;20497;-69
2020/12/08 22:19:49;;;;;;;12.25;7.13;;;;;;;-144.15;0.00;65763.66;10362340;28;20094;-69
2020/12/08 22:24:48;;;;;;;14.00;8.48;;;;;;;-144.15;0.00;65763.66;10362032;28;20040;-69